Time,TemperatureF,DewpointF,PressureIn,WindDirection,WindDirectionDegrees,WindSpeedMPH,WindSpeedGustMPH,Humidity,HourlyPrecipIn,Conditions,Clouds,dailyrainin,SoftwareType,DateUTC
2013-03-27 00:06:00,34.6,31.0,30.01,West,277,0.0,2.0,86,0.00,,,0.00,weatherlink.com 1.10,2013-03-27 04:06:00,
2013-03-27 00:21:00,34.4,31.0,30.01,WSW,257,0.0,3.0,88,0.00,,,0.00,weatherlink.com 1.10,2013-03-27 04:21:00,
2013-03-27 00:36:00,34.0,31.0,30.02,WNW,296,1.0,7.0,89,0.00,,,0.00,weatherlink.com 1.10,2013-03-27 04:36:00,
2013-03-27 00:51:00,33.8,31.0,30.02,WNW,290,5.0,7.0,90,0.00,,,0.00,weatherlink.com 1.10,2013-03-27 04:51:00,
2013-03-27 01:06:00,33.6,31.0,30.02,NW,312,2.0,6.0,91,0.00,,,0.00,weatherlink.com 1.10,2013-03-27 05:06:00,
2013-03-27 01:21:00,33.5,31.0,30.02,WNW,295,4.0,4.0,91,0.00,,,0.00,weatherlink.com 1.10,2013-03-27 05:21:00,
2013-03-27 01:36:00,33.3,31.0,30.02,WNW,288,1.0,4.0,91,0.00,,,0.00,weatherlink.com 1.10,2013-03-27 05:36:00,
2013-03-27 01:51:00,33.2,31.0,30.02,WNW,294,0.0,2.0,91,0.00,,,0.00,weatherlink.com 1.10,2013-03-27 05:51:00,
2013-03-27 02:07:00,33.1,31.0,30.02,WNW,302,1.0,3.0,91,0.00,,,0.00,weatherlink.com 1.10,2013-03-27 06:07:00,
2013-03-27 02:22:00,33.1,31.0,30.02,WNW,291,0.0,1.0,91,0.00,,,0.00,weatherlink.com 1.10,2013-03-27 06:22:00,
2013-03-27 02:36:00,33.1,31.0,30.02,WNW,294,1.0,2.0,91,0.00,,,0.00,weatherlink.com 1.10,2013-03-27 06:36:00,
2013-03-27 02:51:00,33.2,31.0,30.02,WNW,289,5.0,5.0,91,0.00,,,0.00,weatherlink.com 1.10,2013-03-27 06:51:00,
2013-03-27 03:06:00,33.1,31.0,30.01,WNW,285,3.0,5.0,90,0.00,,,0.00,weatherlink.com 1.10,2013-03-27 07:06:00,
2013-03-27 03:21:00,32.8,30.0,30.01,WNW,288,0.0,3.0,90,0.00,,,0.00,weatherlink.com 1.10,2013-03-27 07:21:00,
2013-03-27 03:37:00,32.6,30.0,30.01,NW,304,0.0,2.0,91,0.00,,,0.00,weatherlink.com 1.10,2013-03-27 07:37:00,
2013-03-27 03:52:00,32.5,30.0,30.01,East,92,0.0,1.0,91,0.00,,,0.00,weatherlink.com 1.10,2013-03-27 07:52:00,
2013-03-27 04:07:00,32.5,30.0,30.01,West,271,0.0,1.0,91,0.00,,,0.00,weatherlink.com 1.10,2013-03-27 08:07:00,
2013-03-27 04:22:00,32.4,30.0,30.01,WNW,283,0.0,1.0,91,0.00,,,0.00,weatherlink.com 1.10,2013-03-27 08:22:00,
2013-03-27 04:37:00,32.5,30.0,30.01,SW,231,0.0,1.0,91,0.00,,,0.00,weatherlink.com 1.10,2013-03-27 08:37:00,
2013-03-27 04:52:00,32.8,31.0,30.01,West,274,0.0,1.0,91,0.00,,,0.00,weatherlink.com 1.10,2013-03-27 08:52:00,
2013-03-27 05:07:00,32.8,31.0,30.01,SE,143,0.0,1.0,91,0.00,,,0.00,weatherlink.com 1.10,2013-03-27 09:07:00,
2013-03-27 05:22:00,32.9,31.0,30.01,WNW,285,0.0,2.0,92,0.00,,,0.00,weatherlink.com 1.10,2013-03-27 09:22:00,
2013-03-27 05:37:00,32.8,31.0,30.01,SW,221,0.0,2.0,92,0.00,,,0.00,weatherlink.com 1.10,2013-03-27 09:37:00,
2013-03-27 05:52:00,32.7,31.0,30.01,WNW,301,0.0,2.0,92,0.00,,,0.00,weatherlink.com 1.10,2013-03-27 09:52:00,
2013-03-27 06:07:00,32.7,31.0,30.02,West,278,0.0,1.0,92,0.00,,,0.00,weatherlink.com 1.10,2013-03-27 10:07:00,
2013-03-27 06:22:00,32.8,31.0,30.02,West,278,2.0,3.0,92,0.00,,,0.00,weatherlink.com 1.10,2013-03-27 10:22:00,
2013-03-27 06:37:00,32.8,31.0,30.02,WNW,297,1.0,3.0,92,0.00,,,0.00,weatherlink.com 1.10,2013-03-27 10:37:00,
2013-03-27 06:52:00,32.9,31.0,30.02,WSW,249,1.0,5.0,92,0.00,,,0.00,weatherlink.com 1.10,2013-03-27 10:52:00,
2013-03-27 07:07:00,32.9,31.0,30.03,West,266,2.0,5.0,91,0.00,,,0.00,weatherlink.com 1.10,2013-03-27 11:07:00,
2013-03-27 07:22:00,32.9,31.0,30.03,NW,304,1.0,4.0,91,0.00,,,0.00,weatherlink.com 1.10,2013-03-27 11:22:00,
2013-03-27 07:37:00,33.0,31.0,30.04,West,281,2.0,6.0,91,0.00,,,0.00,weatherlink.com 1.10,2013-03-27 11:37:00,
2013-03-27 07:52:00,33.1,31.0,30.04,WNW,289,3.0,6.0,91,0.00,,,0.00,weatherlink.com 1.10,2013-03-27 11:52:00,
2013-03-27 08:07:00,33.2,31.0,30.04,WNW,295,1.0,5.0,90,0.00,,,0.00,weatherlink.com 1.10,2013-03-27 12:07:00,
2013-03-27 08:22:00,33.3,31.0,30.05,NW,323,1.0,5.0,90,0.00,,,0.00,weatherlink.com 1.10,2013-03-27 12:22:00,
2013-03-27 08:37:00,33.4,31.0,30.05,WNW,302,3.0,5.0,90,0.00,,,0.00,weatherlink.com 1.10,2013-03-27 12:37:00,
2013-03-27 08:52:00,33.5,31.0,30.06,WNW,283,0.0,4.0,90,0.00,,,0.00,weatherlink.com 1.10,2013-03-27 12:52:00,
2013-03-27 09:07:00,33.6,31.0,30.07,WNW,296,2.0,7.0,90,0.00,,,0.00,weatherlink.com 1.10,2013-03-27 13:07:00,
2013-03-27 09:22:00,33.8,31.0,30.07,West,273,1.0,7.0,89,0.00,,,0.00,weatherlink.com 1.10,2013-03-27 13:22:00,
2013-03-27 09:37:00,33.9,31.0,30.07,WNW,293,3.0,5.0,88,0.00,,,0.00,weatherlink.com 1.10,2013-03-27 13:37:00,
2013-03-27 09:52:00,33.8,30.0,30.07,NW,314,2.0,7.0,87,0.00,,,0.00,weatherlink.com 1.10,2013-03-27 13:52:00,
2013-03-27 10:07:00,34.0,31.0,30.07,WNW,288,0.0,4.0,87,0.00,,,0.00,weatherlink.com 1.10,2013-03-27 14:07:00,
2013-03-27 10:22:00,34.1,30.0,30.07,WNW,300,1.0,8.0,86,0.00,,,0.00,weatherlink.com 1.10,2013-03-27 14:22:00,
2013-03-27 10:37:00,34.5,31.0,30.07,West,271,2.0,5.0,85,0.00,,,0.00,weatherlink.com 1.10,2013-03-27 14:37:00,
2013-03-27 10:52:00,34.9,31.0,30.07,NW,313,1.0,6.0,85,0.01,,,0.01,weatherlink.com 1.10,2013-03-27 14:52:00,
2013-03-27 11:07:00,35.3,31.0,30.07,West,280,3.0,8.0,84,0.01,,,0.01,weatherlink.com 1.10,2013-03-27 15:07:00,
2013-03-27 11:22:00,36.0,31.0,30.07,WSW,239,2.0,9.0,82,0.02,,,0.02,weatherlink.com 1.10,2013-03-27 15:22:00,
2013-03-27 11:37:00,36.0,30.0,30.08,WNW,290,2.0,8.0,80,0.02,,,0.02,weatherlink.com 1.10,2013-03-27 15:37:00,
2013-03-27 11:52:00,35.7,30.0,30.08,WNW,300,3.0,9.0,81,0.01,,,0.02,weatherlink.com 1.10,2013-03-27 15:52:00,
2013-03-27 12:07:00,35.6,30.0,30.08,SSW,197,3.0,9.0,81,0.01,,,0.02,weatherlink.com 1.10,2013-03-27 16:07:00,
2013-03-27 12:22:00,35.7,30.0,30.08,WNW,301,6.0,8.0,81,0.00,,,0.02,weatherlink.com 1.10,2013-03-27 16:22:00,
2013-03-27 12:37:00,36.4,30.0,30.08,WNW,300,5.0,7.0,78,0.00,,,0.02,weatherlink.com 1.10,2013-03-27 16:37:00,
2013-03-27 12:52:00,36.4,30.0,30.08,West,278,5.0,9.0,76,0.00,,,0.02,weatherlink.com 1.10,2013-03-27 16:52:00,
2013-03-27 13:07:00,36.7,29.0,30.08,West,276,4.0,11.0,74,0.00,,,0.02,weatherlink.com 1.10,2013-03-27 17:07:00,
2013-03-27 13:22:00,37.6,30.0,30.08,West,265,2.0,8.0,73,0.00,,,0.02,weatherlink.com 1.10,2013-03-27 17:22:00,
2013-03-27 13:37:00,38.1,30.0,30.08,WNW,294,2.0,9.0,73,0.00,,,0.02,weatherlink.com 1.10,2013-03-27 17:37:00,
2013-03-27 13:53:00,38.8,30.0,30.08,WNW,293,2.0,11.0,71,0.00,,,0.02,weatherlink.com 1.10,2013-03-27 17:53:00,
2013-03-27 14:08:00,39.1,30.0,30.07,WNW,297,7.0,11.0,70,0.00,,,0.02,weatherlink.com 1.10,2013-03-27 18:08:00,
2013-03-27 14:23:00,39.8,31.0,30.07,WNW,285,4.0,6.0,70,0.00,,,0.02,weatherlink.com 1.10,2013-03-27 18:23:00,
2013-03-27 14:38:00,39.6,30.0,30.07,WNW,290,6.0,12.0,69,0.00,,,0.02,weatherlink.com 1.10,2013-03-27 18:38:00,
2013-03-27 14:53:00,39.5,30.0,30.07,WNW,297,3.0,8.0,69,0.00,,,0.02,weatherlink.com 1.10,2013-03-27 18:53:00,
2013-03-27 15:08:00,39.9,29.0,30.06,WNW,302,2.0,10.0,66,0.00,,,0.02,weatherlink.com 1.10,2013-03-27 19:08:00,
2013-03-27 15:23:00,40.0,30.0,30.06,WNW,283,3.0,7.0,67,0.00,,,0.02,weatherlink.com 1.10,2013-03-27 19:23:00,
2013-03-27 15:38:00,40.5,30.0,30.06,WNW,291,4.0,9.0,67,0.00,,,0.02,weatherlink.com 1.10,2013-03-27 19:38:00,
2013-03-27 15:53:00,41.1,30.0,30.06,WSW,255,7.0,8.0,64,0.00,,,0.02,weatherlink.com 1.10,2013-03-27 19:53:00,
2013-03-27 16:08:00,40.7,29.0,30.06,NW,304,5.0,12.0,64,0.00,,,0.02,weatherlink.com 1.10,2013-03-27 20:08:00,
2013-03-27 16:23:00,40.7,29.0,30.06,WNW,300,4.0,10.0,64,0.00,,,0.02,weatherlink.com 1.10,2013-03-27 20:23:00,
2013-03-27 16:38:00,40.8,30.0,30.06,WNW,295,6.0,9.0,65,0.00,,,0.02,weatherlink.com 1.10,2013-03-27 20:38:00,
2013-03-27 16:53:00,40.4,29.0,30.06,NW,305,4.0,11.0,64,0.00,,,0.02,weatherlink.com 1.10,2013-03-27 20:53:00,
2013-03-27 17:08:00,40.4,29.0,30.06,WNW,293,3.0,9.0,63,0.00,,,0.02,weatherlink.com 1.10,2013-03-27 21:08:00,
2013-03-27 17:23:00,40.8,29.0,30.06,WNW,288,3.0,8.0,62,0.00,,,0.02,weatherlink.com 1.10,2013-03-27 21:23:00,
2013-03-27 17:38:00,40.8,29.0,30.06,WSW,245,4.0,6.0,63,0.00,,,0.02,weatherlink.com 1.10,2013-03-27 21:38:00,
2013-03-27 17:53:00,40.0,28.0,30.06,WNW,287,4.0,11.0,63,0.00,,,0.02,weatherlink.com 1.10,2013-03-27 21:53:00,
2013-03-27 18:08:00,39.9,29.0,30.07,WNW,290,4.0,10.0,65,0.00,,,0.02,weatherlink.com 1.10,2013-03-27 22:08:00,
2013-03-27 18:23:00,39.8,29.0,30.07,WNW,298,2.0,7.0,66,0.00,,,0.02,weatherlink.com 1.10,2013-03-27 22:23:00,
2013-03-27 18:38:00,37.1,31.0,30.09,West,266,1.0,11.0,77,0.00,,,0.02,weatherlink.com 1.10,2013-03-27 22:38:00,
2013-03-27 18:53:00,36.4,31.0,30.09,WNW,293,2.0,10.0,82,0.00,,,0.02,weatherlink.com 1.10,2013-03-27 22:53:00,
2013-03-27 19:08:00,36.3,32.0,30.09,WNW,293,3.0,5.0,83,0.00,,,0.02,weatherlink.com 1.10,2013-03-27 23:08:00,
2013-03-27 19:23:00,36.0,31.0,30.10,WNW,303,4.0,8.0,83,0.00,,,0.02,weatherlink.com 1.10,2013-03-27 23:23:00,
2013-03-27 19:38:00,35.7,31.0,30.10,WNW,291,1.0,4.0,84,0.00,,,0.02,weatherlink.com 1.10,2013-03-27 23:38:00,
2013-03-27 19:53:00,35.3,31.0,30.10,WNW,287,1.0,3.0,85,0.00,,,0.02,weatherlink.com 1.10,2013-03-27 23:53:00,
2013-03-27 20:08:00,35.2,31.0,30.10,SW,221,0.0,1.0,86,0.00,,,0.02,weatherlink.com 1.10,2013-03-28 00:08:00,
2013-03-27 20:23:00,35.1,31.0,30.10,SW,231,0.0,3.0,86,0.00,,,0.02,weatherlink.com 1.10,2013-03-28 00:23:00,
2013-03-27 20:38:00,35.2,31.0,30.10,WNW,288,3.0,3.0,86,0.00,,,0.02,weatherlink.com 1.10,2013-03-28 00:38:00,
2013-03-27 20:53:00,35.2,31.0,30.10,SW,232,0.0,5.0,86,0.00,,,0.02,weatherlink.com 1.10,2013-03-28 00:53:00,
2013-03-27 21:08:00,35.2,31.0,30.10,West,264,1.0,4.0,86,0.00,,,0.02,weatherlink.com 1.10,2013-03-28 01:08:00,
2013-03-27 21:23:00,35.1,32.0,30.11,WNW,300,2.0,4.0,87,0.00,,,0.02,weatherlink.com 1.10,2013-03-28 01:23:00,
2013-03-27 21:38:00,34.7,32.0,30.11,WNW,287,2.0,6.0,88,0.00,,,0.02,weatherlink.com 1.10,2013-03-28 01:38:00,
2013-03-27 21:53:00,34.3,32.0,30.11,SSW,210,1.0,3.0,90,0.01,,,0.03,weatherlink.com 1.10,2013-03-28 01:53:00,
2013-03-27 22:08:00,34.0,31.0,30.11,West,271,0.0,2.0,90,0.01,,,0.03,weatherlink.com 1.10,2013-03-28 02:08:00,
2013-03-27 22:23:00,33.8,32.0,30.11,WNW,287,1.0,2.0,91,0.01,,,0.03,weatherlink.com 1.10,2013-03-28 02:23:00,
2013-03-27 22:38:00,33.6,31.0,30.11,WSW,249,1.0,1.0,91,0.01,,,0.03,weatherlink.com 1.10,2013-03-28 02:38:00,
2013-03-27 22:53:00,33.2,31.0,30.11,WSW,249,0.0,0.0,91,0.00,,,0.03,weatherlink.com 1.10,2013-03-28 02:53:00,
2013-03-27 23:08:00,32.8,31.0,30.10,WSW,249,0.0,0.0,91,0.00,,,0.03,weatherlink.com 1.10,2013-03-28 03:08:00,
2013-03-27 23:23:00,32.7,31.0,30.10,WSW,249,0.0,0.0,92,0.00,,,0.03,weatherlink.com 1.10,2013-03-28 03:23:00,
2013-03-27 23:38:00,32.8,31.0,30.10,WSW,249,0.0,1.0,92,0.00,,,0.03,weatherlink.com 1.10,2013-03-28 03:38:00,
2013-03-27 23:53:00,33.0,31.0,30.10,SW,232,0.0,1.0,92,0.00,,,0.03,weatherlink.com 1.10,2013-03-28 03:53:00,